Погода Барра ду Гаркасна 2 недели

Мату-Гросу, Бразилия

24 июля-06 августа
  • 24июля
    Сегодня
    +18°
    +33°
    Ясно и безоблачно
    ВремяПогодаТемператураВлажностьДавлениеВетер, м/сВероятность осадков
    02:00Ясно и безоблачно+19°C51 %738 мм1.2 м/с5 %
    05:00Ясно и безоблачно+15°C70 %738 мм2.2 м/с5 %
    08:00Ясно и безоблачно+21°C50 %741 мм0.5 м/с5 %
    11:00Ясно и безоблачно+29°C32 %741 мм2.7 м/с5 %
    14:00Ясно и безоблачно+33°C28 %739 мм0.7 м/с5 %
    17:00Ясно и безоблачно+29°C39 %738 мм1.2 м/с5 %
    20:00Ясно и безоблачно+25°C38 %739 мм0.4 м/с5 %
    23:00Ясно и безоблачно+24°C37 %739 мм0.5 м/с5 %
  • 25июля
    Четверг
    +16°
    +34°
    Ясно и безоблачно
    ВремяПогодаТемператураВлажностьДавлениеВетер, м/сВероятность осадков
    02:00Ясно и безоблачно+20°C47 %738 мм1.0 м/с5 %
    05:00Ясно и безоблачно+19°C47 %738 мм0.8 м/с5 %
    08:00Ясно и безоблачно+22°C50 %740 мм0.5 м/с5 %
    11:00Ясно и безоблачно+31°C28 %740 мм1.6 м/с5 %
    14:00Ясно и безоблачно+34°C23 %737 мм0.7 м/с5 %
    17:00Ясно и безоблачно+30°C35 %737 мм1.8 м/с5 %
    20:00Ясно и безоблачно+25°C46 %737 мм0.4 м/с5 %
    23:00Ясно и безоблачно+22°C50 %737 мм1.3 м/с5 %
  • 26июля
    Пятница
    +16°
    +34°
    Практически безоблачно
    ВремяПогодаТемператураВлажностьДавлениеВетер, м/сВероятность осадков
    02:00Практически безоблачно+22°C45 %736 мм0.3 м/с5 %
    05:00Ясно и безоблачно+17°C61 %736 мм0.9 м/с5 %
    08:00Ясно и безоблачно+22°C46 %739 мм0.5 м/с5 %
    11:00Ясно и безоблачно+31°C29 %739 мм2.6 м/с5 %
    14:00Практически безоблачно+34°C24 %736 мм0.7 м/с5 %
    17:00Ясно и безоблачно+29°C41 %736 мм1.8 м/с5 %
    20:00Ясно и безоблачно+25°C38 %737 мм0.4 м/с5 %
    23:00Ясно и безоблачно+23°C36 %737 мм1.0 м/с5 %
  • 27июля
    Суббота
    +17°
    +35°
    Ясно и безоблачно
    ВремяПогодаТемператураВлажностьДавлениеВетер, м/сВероятность осадков
    02:00Ясно и безоблачно+18°C55 %736 мм1.4 м/с5 %
    05:00Ясно и безоблачно+16°C59 %736 мм1.8 м/с5 %
    08:00Ясно и безоблачно+22°C46 %738 мм0.5 м/с5 %
    11:00Ясно и безоблачно+32°C26 %739 мм2.5 м/с5 %
    14:00Ясно и безоблачно+34°C24 %737 мм0.7 м/с5 %
    17:00Ясно и безоблачно+30°C40 %737 мм1.9 м/с5 %
    20:00Ясно и безоблачно+26°C44 %738 мм0.4 м/с5 %
    23:00Ясно и безоблачно+24°C45 %738 мм1.5 м/с5 %
Мы используем cookies
Соглашаюсь